Wetterdaten: Donnerstag, 20.11.2014
Datum Zeit Temp. A. Feuchte A. Luftdruck Regen Wind Richtung Richtung Sonnenschein ET UV Solar Taupunkt Windchill Windben Empfang
20.11.2014 00:00 5,6 C 80 % 1025,0 hPa 0,0 l/m 0,0 km/h (0 Bft) W-SW 239 0 min 0,000 mm 0,0 UV-I 0 W/m 2,4 C 5,6 C 0,0 km/h (0 Bft) 0,00 %
20.11.2014 00:15 5,6 C 80 % 1025,2 hPa 0,0 l/m 0,0 km/h (0 Bft) W-SW 252 0 min 0,000 mm 0,0 UV-I 0 W/m 2,4 C 5,6 C 0,0 km/h (0 Bft) 0,00 %
20.11.2014 00:30 5,5 C 80 % 1025,2 hPa 0,0 l/m 0,0 km/h (0 Bft) SW 229 0 min 0,000 mm 0,0 UV-I 0 W/m 2,3 C 5,5 C 0,0 km/h (0 Bft) 0,00 %
20.11.2014 00:45 5,6 C 80 % 1025,2 hPa 0,0 l/m 0,0 km/h (0 Bft) W-SW 251 0 min 0,000 mm 0,0 UV-I 0 W/m 2,4 C 5,6 C 0,0 km/h (0 Bft) 0,00 %
20.11.2014 01:00 5,6 C 79 % 1025,4 hPa 0,0 l/m 0,0 km/h (0 Bft) W-SW 252 0 min 0,000 mm 0,0 UV-I 0 W/m 2,3 C 5,6 C 0,0 km/h (0 Bft) 0,00 %
20.11.2014 01:15 5,6 C 79 % 1025,6 hPa 0,0 l/m 0,0 km/h (0 Bft) S-SW 202 0 min 0,000 mm 0,0 UV-I 0 W/m 2,3 C 5,6 C 0,0 km/h (0 Bft) 0,00 %
20.11.2014 01:30 5,6 C 80 % 1025,8 hPa 0,0 l/m 0,0 km/h (0 Bft) W-SW 256 0 min 0,000 mm 0,0 UV-I 0 W/m 2,4 C 5,6 C 0,0 km/h (0 Bft) 0,00 %
20.11.2014 01:45 5,5 C 80 % 1025,8 hPa 0,0 l/m 0,0 km/h (0 Bft) SW 226 0 min 0,000 mm 0,0 UV-I 0 W/m 2,3 C 5,5 C 0,0 km/h (0 Bft) 0,00 %
20.11.2014 02:00 5,5 C 80 % 1025,8 hPa 0,0 l/m 0,0 km/h (0 Bft) W-SW 254 0 min 0,000 mm 0,0 UV-I 0 W/m 2,3 C 5,5 C 0,0 km/h (0 Bft) 0,00 %
20.11.2014 02:15 5,5 C 79 % 1025,8 hPa 0,0 l/m 0,0 km/h (0 Bft) W-SW 251 0 min 0,000 mm 0,0 UV-I 0 W/m 2,2 C 5,5 C 0,0 km/h (0 Bft) 0,00 %
20.11.2014 02:30 5,5 C 79 % 1025,8 hPa 0,0 l/m 0,0 km/h (0 Bft) SW 228 0 min 0,000 mm 0,0 UV-I 0 W/m 2,2 C 5,5 C 0,0 km/h (0 Bft) 0,00 %
20.11.2014 02:45 5,5 C 79 % 1025,7 hPa 0,0 l/m 0,0 km/h (0 Bft) SW 230 0 min 0,000 mm 0,0 UV-I 0 W/m 2,2 C 5,5 C 0,0 km/h (0 Bft) 0,00 %
20.11.2014 03:00 5,4 C 80 % 1025,6 hPa 0,0 l/m 0,0 km/h (0 Bft) W-SW 249 0 min 0,000 mm 0,0 UV-I 0 W/m 2,2 C 5,4 C 0,0 km/h (0 Bft) 0,00 %
20.11.2014 03:15 5,2 C 81 % 1025,5 hPa 0,0 l/m 0,0 km/h (0 Bft) W-SW 253 0 min 0,000 mm 0,0 UV-I 0 W/m 2,2 C 5,2 C 0,0 km/h (0 Bft) 0,00 %
20.11.2014 03:30 5,2 C 81 % 1025,6 hPa 0,0 l/m 0,0 km/h (0 Bft) W-SW 251 0 min 0,000 mm 0,0 UV-I 0 W/m 2,2 C 5,2 C 0,0 km/h (0 Bft) 0,00 %
20.11.2014 03:45 5,2 C 81 % 1025,8 hPa 0,0 l/m 0,0 km/h (0 Bft) W-SW 254 0 min 0,000 mm 0,0 UV-I 0 W/m 2,2 C 5,2 C 0,0 km/h (0 Bft) 0,00 %
20.11.2014 04:00 5,2 C 81 % 1026,0 hPa 0,0 l/m 0,0 km/h (0 Bft) W-SW 252 0 min 0,000 mm 0,0 UV-I 0 W/m 2,2 C 5,2 C 0,0 km/h (0 Bft) 0,00 %
20.11.2014 04:15 5,2 C 81 % 1026,2 hPa 0,0 l/m 0,0 km/h (0 Bft) W-SW 251 0 min 0,000 mm 0,0 UV-I 0 W/m 2,2 C 5,2 C 0,0 km/h (0 Bft) 0,00 %
20.11.2014 04:30 5,3 C 81 % 1026,1 hPa 0,0 l/m 0,0 km/h (0 Bft) W-SW 253 0 min 0,000 mm 0,0 UV-I 0 W/m 2,3 C 5,3 C 0,0 km/h (0 Bft) 0,00 %
20.11.2014 04:45 5,2 C 81 % 1026,3 hPa 0,0 l/m 0,0 km/h (0 Bft) W-SW 256 0 min 0,000 mm 0,0 UV-I 0 W/m 2,2 C 5,2 C 0,0 km/h (0 Bft) 0,00 %
20.11.2014 05:00 5,2 C 80 % 1026,2 hPa 0,0 l/m 0,0 km/h (0 Bft) SW 231 0 min 0,000 mm 0,0 UV-I 0 W/m 2,0 C 5,2 C 0,0 km/h (0 Bft) 0,00 %
20.11.2014 05:15 5,2 C 80 % 1026,2 hPa 0,0 l/m 0,0 km/h (0 Bft) W-SW 246 0 min 0,000 mm 0,0 UV-I 0 W/m 2,0 C 5,2 C 0,0 km/h (0 Bft) 0,00 %
20.11.2014 05:30 5,2 C 80 % 1026,1 hPa 0,0 l/m 0,0 km/h (0 Bft) SW 233 0 min 0,000 mm 0,0 UV-I 0 W/m 2,0 C 5,2 C 0,0 km/h (0 Bft) 0,00 %
20.11.2014 05:45 5,2 C 80 % 1026,0 hPa 0,0 l/m 0,0 km/h (0 Bft) W-SW 251 0 min 0,000 mm 0,0 UV-I 0 W/m 2,0 C 5,2 C 0,0 km/h (0 Bft) 0,00 %
20.11.2014 06:00 5,2 C 80 % 1026,0 hPa 0,0 l/m 0,0 km/h (0 Bft) SW 236 0 min 0,000 mm 0,0 UV-I 0 W/m 2,0 C 5,2 C 0,0 km/h (0 Bft) 0,00 %
20.11.2014 06:15 5,1 C 80 % 1026,1 hPa 0,0 l/m 0,0 km/h (0 Bft) SW 216 0 min 0,000 mm 0,0 UV-I 0 W/m 1,9 C 5,1 C 0,0 km/h (0 Bft) 0,00 %
20.11.2014 06:30 5,0 C 80 % 1026,1 hPa 0,0 l/m 0,0 km/h (0 Bft) W-SW 253 0 min 0,000 mm 0,0 UV-I 0 W/m 1,8 C 5,0 C 0,0 km/h (0 Bft) 0,00 %
20.11.2014 06:45 5,0 C 81 % 1026,2 hPa 0,0 l/m 0,0 km/h (0 Bft) SW 223 0 min 0,000 mm 0,0 UV-I 0 W/m 2,0 C 5,0 C 0,0 km/h (0 Bft) 0,00 %
20.11.2014 07:00 4,9 C 81 % 1026,3 hPa 0,0 l/m 0,0 km/h (0 Bft) SW 223 0 min 0,000 mm 0,0 UV-I 0 W/m 1,9 C 4,9 C 0,0 km/h (0 Bft) 0,00 %
20.11.2014 07:15 4,9 C 81 % 1026,5 hPa 0,0 l/m 0,0 km/h (0 Bft) SW 223 0 min 0,000 mm 0,0 UV-I 0 W/m 1,9 C 4,9 C 0,0 km/h (0 Bft) 0,00 %
20.11.2014 07:30 4,9 C 81 % 1026,4 hPa 0,0 l/m 0,0 km/h (0 Bft) SW 223 0 min 0,000 mm 0,0 UV-I 0 W/m 1,9 C 4,9 C 0,0 km/h (0 Bft) 0,00 %
20.11.2014 07:45 4,9 C 81 % 1026,6 hPa 0,0 l/m 0,0 km/h (0 Bft) SW 223 0 min 0,000 mm 0,0 UV-I 7 W/m 1,9 C 4,9 C 0,0 km/h (0 Bft) 0,00 %
20.11.2014 08:00 5,0 C 81 % 1026,8 hPa 0,0 l/m 0,0 km/h (0 Bft) SW 223 0 min 0,000 mm 0,0 UV-I 46 W/m 2,0 C 5,0 C 0,0 km/h (0 Bft) 0,00 %
20.11.2014 08:15 5,1 C 81 % 1026,9 hPa 0,0 l/m 0,0 km/h (0 Bft) SW 223 15 min 0,000 mm 0,0 UV-I 75 W/m 2,1 C 5,1 C 0,0 km/h (0 Bft) 0,00 %
20.11.2014 08:30 5,4 C 80 % 1026,8 hPa 0,0 l/m 0,0 km/h (0 Bft) SW 217 15 min 0,000 mm 1,0 UV-I 135 W/m 2,2 C 5,4 C 0,0 km/h (0 Bft) 0,00 %
20.11.2014 08:45 5,6 C 80 % 1027,0 hPa 0,0 l/m 0,0 km/h (0 Bft) SW 217 0 min 0,000 mm 1,0 UV-I 66 W/m 2,4 C 5,6 C 0,0 km/h (0 Bft) 0,00 %
20.11.2014 09:00 6,0 C 79 % 1026,8 hPa 0,0 l/m 0,0 km/h (0 Bft) SW 220 0 min 0,000 mm 1,0 UV-I 55 W/m 2,6 C 6,0 C 0,0 km/h (0 Bft) 0,00 %
20.11.2014 09:15 6,3 C 77 % 1026,6 hPa 0,0 l/m 0,0 km/h (0 Bft) W-SW 251 0 min 0,000 mm 1,0 UV-I 66 W/m 2,6 C 6,3 C 0,0 km/h (0 Bft) 0,00 %
20.11.2014 09:30 6,5 C 76 % 1026,7 hPa 0,0 l/m 0,0 km/h (0 Bft) W-SW 253 0 min 0,000 mm 1,0 UV-I 77 W/m 2,6 C 6,5 C 0,0 km/h (0 Bft) 0,00 %
20.11.2014 09:45 6,8 C 74 % 1026,8 hPa 0,0 l/m 0,0 km/h (0 Bft) W-SW 256 0 min 0,000 mm 1,0 UV-I 77 W/m 2,5 C 6,8 C 0,0 km/h (0 Bft) 0,00 %
20.11.2014 10:00 7,1 C 73 % 1026,7 hPa 0,0 l/m 0,4 km/h (0 Bft) W-SW 251 0 min 0,000 mm 1,0 UV-I 88 W/m 2,6 C 7,1 C 4,0 km/h (1 Bft) 0,00 %
20.11.2014 10:15 7,6 C 73 % 1026,7 hPa 0,0 l/m 0,0 km/h (0 Bft) W-SW 255 0 min 0,000 mm 1,0 UV-I 99 W/m 3,1 C 7,6 C 0,0 km/h (0 Bft) 0,00 %
20.11.2014 10:30 7,7 C 72 % 1026,2 hPa 0,0 l/m 0,0 km/h (0 Bft) N 352 0 min 0,000 mm 2,0 UV-I 100 W/m 3,0 C 7,7 C 0,0 km/h (0 Bft) 0,00 %
20.11.2014 10:45 8,0 C 70 % 1026,4 hPa 0,0 l/m 0,0 km/h (0 Bft) SW 228 0 min 0,000 mm 1,0 UV-I 110 W/m 2,9 C 8,0 C 0,0 km/h (0 Bft) 0,00 %
20.11.2014 11:00 7,8 C 70 % 1026,2 hPa 0,0 l/m 0,0 km/h (0 Bft) N 349 0 min 0,000 mm 1,0 UV-I 111 W/m 2,7 C 7,8 C 0,0 km/h (0 Bft) 0,00 %
20.11.2014 11:15 7,4 C 70 % 1026,0 hPa 0,0 l/m 0,0 km/h (0 Bft) NW 305 0 min 0,000 mm 1,0 UV-I 122 W/m 2,3 C 7,4 C 0,0 km/h (0 Bft) 0,00 %
20.11.2014 11:30 8,0 C 70 % 1025,9 hPa 0,0 l/m 0,7 km/h (0 Bft) W-NW 290 0 min 0,000 mm 1,0 UV-I 133 W/m 2,9 C 8,0 C 4,0 km/h (1 Bft) 0,00 %
20.11.2014 11:45 7,4 C 71 % 1025,9 hPa 0,0 l/m 0,0 km/h (0 Bft) SW 223 0 min 0,000 mm 1,0 UV-I 144 W/m 2,5 C 7,4 C 0,0 km/h (0 Bft) 0,00 %
20.11.2014 12:00 7,7 C 69 % 1025,6 hPa 0,0 l/m 0,0 km/h (0 Bft) SW 235 0 min 0,000 mm 2,0 UV-I 155 W/m 2,4 C 7,7 C 0,0 km/h (0 Bft) 0,00 %
20.11.2014 12:15 8,0 C 69 % 1025,6 hPa 0,0 l/m 0,0 km/h (0 Bft) W-SW 256 0 min 0,000 mm 2,0 UV-I 144 W/m 2,7 C 8,0 C 0,0 km/h (0 Bft) 0,00 %
20.11.2014 12:30 7,8 C 68 % 1025,3 hPa 0,0 l/m 0,0 km/h (0 Bft) SW 235 0 min 0,000 mm 1,0 UV-I 166 W/m 2,3 C 7,8 C 0,0 km/h (0 Bft) 0,00 %
20.11.2014 12:45 7,9 C 68 % 1025,3 hPa 0,0 l/m 0,0 km/h (0 Bft) W-SW 256 0 min 0,000 mm 1,0 UV-I 155 W/m 2,4 C 7,9 C 0,0 km/h (0 Bft) 0,00 %
20.11.2014 13:00 8,4 C 64 % 1025,3 hPa 0,0 l/m 0,0 km/h (0 Bft) W-SW 256 0 min 0,000 mm 1,0 UV-I 144 W/m 2,0 C 8,4 C 0,0 km/h (0 Bft) 0,00 %
20.11.2014 13:15 8,2 C 64 % 1025,0 hPa 0,0 l/m 0,0 km/h (0 Bft) NO 42 0 min 0,000 mm 1,0 UV-I 133 W/m 1,8 C 8,2 C 0,0 km/h (0 Bft) 0,00 %
20.11.2014 13:30 7,9 C 65 % 1025,0 hPa 0,0 l/m 0,0 km/h (0 Bft) W-SW 256 15 min 0,000 mm 1,0 UV-I 433 W/m 1,7 C 7,9 C 0,0 km/h (0 Bft) 0,00 %
20.11.2014 13:45 7,8 C 67 % 1025,0 hPa 0,0 l/m 0,0 km/h (0 Bft) SO 127 15 min 0,000 mm 1,0 UV-I 359 W/m 2,1 C 7,8 C 0,0 km/h (0 Bft) 0,00 %
20.11.2014 14:00 8,3 C 68 % 1024,8 hPa 0,0 l/m 0,0 km/h (0 Bft) N 355 15 min 0,000 mm 1,0 UV-I 254 W/m 2,7 C 8,3 C 0,0 km/h (0 Bft) 0,00 %
20.11.2014 14:15 7,9 C 69 % 1024,8 hPa 0,0 l/m 0,4 km/h (0 Bft) W-SW 256 15 min 0,000 mm 1,0 UV-I 215 W/m 2,6 C 7,9 C 4,0 km/h (1 Bft) 0,00 %
20.11.2014 14:30 7,5 C 69 % 1024,9 hPa 0,0 l/m 0,0 km/h (0 Bft) NO 56 15 min 0,000 mm 1,0 UV-I 221 W/m 2,2 C 7,5 C 0,0 km/h (0 Bft) 0,00 %
20.11.2014 14:45 7,6 C 67 % 1025,1 hPa 0,0 l/m 0,0 km/h (0 Bft) W-SW 251 0 min 0,000 mm 1,0 UV-I 108 W/m 1,9 C 7,6 C 0,0 km/h (0 Bft) 0,00 %
20.11.2014 15:00 6,8 C 69 % 1025,1 hPa 0,0 l/m 0,0 km/h (0 Bft) W 264 0 min 0,000 mm 0,0 UV-I 48 W/m 1,5 C 6,8 C 0,0 km/h (0 Bft) 0,00 %
20.11.2014 15:15 7,2 C 70 % 1025,1 hPa 0,0 l/m 0,0 km/h (0 Bft) W-SW 256 0 min 0,000 mm 0,0 UV-I 30 W/m 2,1 C 7,2 C 0,0 km/h (0 Bft) 0,00 %
20.11.2014 15:30 7,2 C 68 % 1025,2 hPa 0,0 l/m 0,0 km/h (0 Bft) W-SW 253 0 min 0,000 mm 0,0 UV-I 6 W/m 1,7 C 7,2 C 0,0 km/h (0 Bft) 0,00 %
20.11.2014 15:45 7,1 C 68 % 1025,5 hPa 0,0 l/m 0,0 km/h (0 Bft) W-NW 299 0 min 0,000 mm 0,0 UV-I 0 W/m 1,6 C 7,1 C 0,0 km/h (0 Bft) 0,00 %
20.11.2014 16:00 6,9 C 69 % 1025,5 hPa 0,0 l/m 0,0 km/h (0 Bft) W-SW 253 0 min 0,000 mm 0,0 UV-I 0 W/m 1,6 C 6,9 C 0,0 km/h (0 Bft) 0,00 %
20.11.2014 16:15 6,7 C 69 % 1025,5 hPa 0,0 l/m 0,0 km/h (0 Bft) NW 320 0 min 0,000 mm 0,0 UV-I 0 W/m 1,4 C 6,7 C 0,0 km/h (0 Bft) 0,00 %
20.11.2014 16:30 6,6 C 69 % 1025,5 hPa 0,0 l/m 0,0 km/h (0 Bft) S 182 0 min 0,000 mm 0,0 UV-I 0 W/m 1,3 C 6,6 C 0,0 km/h (0 Bft) 0,00 %
20.11.2014 16:45 6,4 C 70 % 1025,6 hPa 0,0 l/m 0,0 km/h (0 Bft) S-SW 209 0 min 0,000 mm 0,0 UV-I 0 W/m 1,3 C 6,4 C 0,0 km/h (0 Bft) 0,00 %
20.11.2014 17:00 6,4 C 72 % 1025,4 hPa 0,0 l/m 0,0 km/h (0 Bft) NO 50 0 min 0,000 mm 0,0 UV-I 0 W/m 1,7 C 6,4 C 0,0 km/h (0 Bft) 0,00 %
20.11.2014 17:15 6,2 C 72 % 1025,7 hPa 0,0 l/m 0,0 km/h (0 Bft) O-SO 103 0 min 0,000 mm 0,0 UV-I 0 W/m 1,5 C 6,2 C 0,0 km/h (0 Bft) 0,00 %
20.11.2014 17:30 6,2 C 73 % 1025,4 hPa 0,0 l/m 0,0 km/h (0 Bft) SW 231 0 min 0,000 mm 0,0 UV-I 0 W/m 1,7 C 6,2 C 0,0 km/h (0 Bft) 0,00 %
20.11.2014 17:45 6,1 C 75 % 1025,3 hPa 0,0 l/m 0,0 km/h (0 Bft) W-SW 252 0 min 0,000 mm 0,0 UV-I 0 W/m 2,0 C 6,1 C 0,0 km/h (0 Bft) 0,00 %
20.11.2014 18:00 6,0 C 73 % 1025,4 hPa 0,0 l/m 0,0 km/h (0 Bft) S 182 0 min 0,000 mm 0,0 UV-I 0 W/m 1,5 C 6,0 C 0,0 km/h (0 Bft) 0,00 %
20.11.2014 18:15 5,9 C 75 % 1025,4 hPa 0,0 l/m 0,0 km/h (0 Bft) S 183 0 min 0,000 mm 0,0 UV-I 0 W/m 1,8 C 5,9 C 0,0 km/h (0 Bft) 0,00 %
20.11.2014 18:30 5,8 C 74 % 1025,6 hPa 0,0 l/m 0,0 km/h (0 Bft) W-SW 252 0 min 0,000 mm 0,0 UV-I 0 W/m 1,5 C 5,8 C 0,0 km/h (0 Bft) 0,00 %
20.11.2014 18:45 5,8 C 77 % 1025,4 hPa 0,0 l/m 0,0 km/h (0 Bft) SW 231 0 min 0,000 mm 0,0 UV-I 0 W/m 2,1 C 5,8 C 0,0 km/h (0 Bft) 0,00 %
20.11.2014 19:00 5,7 C 75 % 1025,3 hPa 0,0 l/m 0,0 km/h (0 Bft) S-SW 204 0 min 0,000 mm 0,0 UV-I 0 W/m 1,6 C 5,7 C 0,0 km/h (0 Bft) 0,00 %
20.11.2014 19:15 5,5 C 76 % 1025,2 hPa 0,0 l/m 0,0 km/h (0 Bft) S 175 0 min 0,000 mm 0,0 UV-I 0 W/m 1,6 C 5,5 C 0,0 km/h (0 Bft) 0,00 %
20.11.2014 19:30 5,4 C 77 % 1025,1 hPa 0,0 l/m 0,0 km/h (0 Bft) S 172 0 min 0,000 mm 0,0 UV-I 0 W/m 1,7 C 5,4 C 0,0 km/h (0 Bft) 0,00 %
20.11.2014 19:45 5,3 C 78 % 1025,2 hPa 0,0 l/m 0,0 km/h (0 Bft) S 171 0 min 0,000 mm 0,0 UV-I 0 W/m 1,8 C 5,3 C 0,0 km/h (0 Bft) 0,00 %
20.11.2014 20:00 5,1 C 80 % 1025,6 hPa 0,0 l/m 0,0 km/h (0 Bft) S-SW 197 0 min 0,000 mm 0,0 UV-I 0 W/m 1,9 C 5,1 C 0,0 km/h (0 Bft) 0,00 %
20.11.2014 20:15 5,2 C 79 % 1025,5 hPa 0,0 l/m 0,0 km/h (0 Bft) S 173 0 min 0,000 mm 0,0 UV-I 0 W/m 1,9 C 5,2 C 0,0 km/h (0 Bft) 0,00 %
20.11.2014 20:30 5,2 C 80 % 1025,7 hPa 0,0 l/m 0,0 km/h (0 Bft) S 173 0 min 0,000 mm 0,0 UV-I 0 W/m 2,0 C 5,2 C 0,0 km/h (0 Bft) 0,00 %
20.11.2014 20:45 5,2 C 80 % 1025,7 hPa 0,0 l/m 0,0 km/h (0 Bft) S 174 0 min 0,000 mm 0,0 UV-I 0 W/m 2,0 C 5,2 C 0,0 km/h (0 Bft) 0,00 %
20.11.2014 21:00 5,2 C 79 % 1025,6 hPa 0,0 l/m 0,0 km/h (0 Bft) S 174 0 min 0,000 mm 0,0 UV-I 0 W/m 1,9 C 5,2 C 0,0 km/h (0 Bft) 0,00 %
20.11.2014 21:15 5,1 C 79 % 1025,7 hPa 0,0 l/m 0,0 km/h (0 Bft) S 174 0 min 0,000 mm 0,0 UV-I 0 W/m 1,8 C 5,1 C 0,0 km/h (0 Bft) 0,00 %
20.11.2014 21:30 5,0 C 76 % 1026,1 hPa 0,0 l/m 0,0 km/h (0 Bft) W-SW 252 0 min 0,000 mm 0,0 UV-I 0 W/m 1,1 C 5,0 C 0,0 km/h (0 Bft) 0,00 %
20.11.2014 21:45 5,1 C 75 % 1026,0 hPa 0,0 l/m 0,0 km/h (0 Bft) O 88 0 min 0,000 mm 0,0 UV-I 0 W/m 1,0 C 5,1 C 0,0 km/h (0 Bft) 0,00 %
20.11.2014 22:00 5,2 C 73 % 1026,1 hPa 0,0 l/m 0,4 km/h (0 Bft) O-NO 74 0 min 0,000 mm 0,0 UV-I 0 W/m 0,8 C 5,2 C 4,0 km/h (1 Bft) 0,00 %
20.11.2014 22:15 5,3 C 72 % 1026,0 hPa 0,0 l/m 0,0 km/h (0 Bft) S 190 0 min 0,000 mm 0,0 UV-I 0 W/m 0,7 C 5,3 C 0,0 km/h (0 Bft) 0,00 %
20.11.2014 22:30 5,1 C 72 % 1026,0 hPa 0,0 l/m 0,0 km/h (0 Bft) S 173 0 min 0,000 mm 0,0 UV-I 0 W/m 0,5 C 5,1 C 0,0 km/h (0 Bft) 0,00 %
20.11.2014 22:45 5,0 C 73 % 1025,9 hPa 0,0 l/m 0,0 km/h (0 Bft) S 176 0 min 0,000 mm 0,0 UV-I 0 W/m 0,6 C 5,0 C 0,0 km/h (0 Bft) 0,00 %
20.11.2014 23:00 4,8 C 74 % 1025,9 hPa 0,0 l/m 0,0 km/h (0 Bft) S 175 0 min 0,000 mm 0,0 UV-I 0 W/m 0,6 C 4,8 C 0,0 km/h (0 Bft) 0,00 %
20.11.2014 23:15 4,7 C 75 % 1025,8 hPa 0,0 l/m 0,0 km/h (0 Bft) S-SO 147 0 min 0,000 mm 0,0 UV-I 0 W/m 0,7 C 4,7 C 0,0 km/h (0 Bft) 0,00 %
20.11.2014 23:30 4,7 C 75 % 1025,9 hPa 0,0 l/m 0,0 km/h (0 Bft) S-SO 166 0 min 0,000 mm 0,0 UV-I 0 W/m 0,7 C 4,7 C 0,0 km/h (0 Bft) 0,00 %
20.11.2014 23:45 4,7 C 74 % 1025,9 hPa 0,0 l/m 0,0 km/h (0 Bft) SO 133 0 min 0,000 mm 0,0 UV-I 0 W/m 0,5 C 4,7 C 0,0 km/h (0 Bft) 0,00 %
_ Min-Zeit 23:15 13:00 14:00 - 00:00 - - - - - - 23:45 23:15 00:00 00:00
Minimum _ 4,7 C 64 % 1024,8 hPa - 0,0 km/h (0 Bft) - - - - - - 0,5 C 4,7 C 0,0 km/h (0 Bft) 0,00 %
_ Max-Zeit 13:00 03:15 08:45 00:00 11:30 - - 08:15 00:00 10:30 13:30 10:15 13:00 10:00 00:00
Maximum _ 8,4 C 81 % 1027,0 hPa 0,0 l/m 0,7 km/h
W-NW (0 Bft)
- - 15 min 0,000 mm 2,0 UV-I 433 W/m 3,1 C 8,4 C 4,0 km/h
W-SW (1 Bft)
0,00 %
Durchschnitt _ 6,0 C 75 % 1025,8 hPa #0,0 l/m 0,0 km/h (0 Bft) N - #1:45 h #0,000 mm 1,1 UV-I 128 W/m 2,0 C 6,0 C 0,2 km/h (0 Bft) 0,00 %